Time;durP1;ratioP1;P1;durP2;ratioP2;P2;SDS_P1;SDS_P2;PMS_P1;PMS_P2;Temp;Humidity;BMP_temperature;BMP_pressure;BME280_temperature;BME280_humidity;BME280_pressure;Samples;Min_cycle;Max_cycle;Signal;HPM_P1;HPM_P2
2021/01/20 00:00:01;;;;;;;0.40;0.30;;;;;;;6.00;100.00;99887.47;5092506;28;20471;-63
2021/01/20 00:02:28;;;;;;;0.70;0.50;;;;;;;5.99;100.00;99887.75;5094931;28;20965;-63
2021/01/20 00:04:54;;;;;;;1.37;0.40;;;;;;;5.99;100.00;99895.81;5082875;28;20902;-63
2021/01/20 00:07:20;;;;;;;0.40;0.30;;;;;;;6.00;100.00;99897.41;5101438;28;20447;-63
2021/01/20 00:09:46;;;;;;;0.40;0.30;;;;;;;6.02;100.00;99901.44;5101325;28;20444;-63
2021/01/20 00:12:12;;;;;;;0.60;0.50;;;;;;;5.99;100.00;99910.06;5101319;28;20452;-63
2021/01/20 00:14:39;;;;;;;0.40;0.30;;;;;;;6.00;100.00;99908.97;5100846;28;20468;-63
2021/01/20 00:17:05;;;;;;;0.40;0.30;;;;;;;5.99;100.00;99912.75;5101504;28;20546;-63
2021/01/20 00:19:32;;;;;;;1.30;1.27;;;;;;;6.03;100.00;99915.66;5100871;28;20448;-63
2021/01/20 00:21:58;;;;;;;0.77;0.77;;;;;;;6.05;100.00;99908.09;5100936;28;20455;-63
2021/01/20 00:24:24;;;;;;;0.60;0.50;;;;;;;6.01;100.00;99921.31;5100544;28;20498;-63
2021/01/20 00:26:50;;;;;;;1.97;1.27;;;;;;;5.99;100.00;99920.00;5100093;28;20956;-63
2021/01/20 00:29:16;;;;;;;0.40;0.30;;;;;;;5.94;100.00;99917.38;5100276;28;20498;-63
2021/01/20 00:31:43;;;;;;;7.00;1.00;;;;;;;5.94;100.00;99914.69;5100793;28;20850;-63
2021/01/20 00:34:10;;;;;;;0.40;0.30;;;;;;;5.92;100.00;99909.59;5100715;28;20546;-64
2021/01/20 00:36:36;;;;;;;1.80;1.40;;;;;;;5.89;100.00;99907.47;5100460;28;20451;-64
2021/01/20 00:39:03;;;;;;;0.60;0.60;;;;;;;5.85;100.00;99909.13;5100594;28;20480;-63
2021/01/20 00:41:29;;;;;;;2.30;0.50;;;;;;;5.81;100.00;99908.09;5101598;28;20452;-63
2021/01/20 00:43:55;;;;;;;0.63;0.63;;;;;;;5.85;100.00;99913.69;5100215;28;20464;-62
2021/01/20 00:46:21;;;;;;;0.40;0.37;;;;;;;5.83;100.00;99916.66;5100377;28;20429;-63
2021/01/20 00:48:48;;;;;;;0.40;0.30;;;;;;;5.79;100.00;99904.88;5100006;28;20445;-63
2021/01/20 00:51:14;;;;;;;0.40;0.30;;;;;;;5.79;100.00;99923.69;5100055;28;20447;-63
2021/01/20 00:53:41;;;;;;;0.40;0.30;;;;;;;5.79;100.00;99913.72;5099607;28;20469;-63
2021/01/20 00:56:10;;;;;;;0.70;0.70;;;;;;;5.75;100.00;99915.38;5103351;28;20482;-64
2021/01/20 00:58:36;;;;;;;1.13;1.00;;;;;;;5.78;100.00;99916.72;5103652;28;21014;-63
2021/01/20 01:01:03;;;;;;;0.40;0.30;;;;;;;5.75;100.00;99919.97;5104292;28;20444;-63
2021/01/20 01:03:29;;;;;;;1.47;1.37;;;;;;;5.76;100.00;99919.69;5101940;28;20456;-63
2021/01/20 01:05:56;;;;;;;0.70;0.60;;;;;;;5.78;100.00;99927.47;5101704;28;20444;-63
2021/01/20 01:08:25;;;;;;;0.40;0.30;;;;;;;5.83;100.00;99922.03;5100566;28;20440;-63
2021/01/20 01:10:51;;;;;;;1.50;1.40;;;;;;;5.82;100.00;99915.84;5099614;28;21013;-63
2021/01/20 01:13:18;;;;;;;0.60;0.60;;;;;;;5.85;100.00;99924.44;5098924;28;20445;-63
2021/01/20 01:15:44;;;;;;;0.40;0.30;;;;;;;5.85;100.00;99919.88;5099566;28;20459;-63
2021/01/20 01:18:10;;;;;;;0.50;0.30;;;;;;;5.83;100.00;99909.38;5099396;28;21019;-63
2021/01/20 01:20:37;;;;;;;0.60;0.43;;;;;;;5.83;100.00;99912.06;5099083;28;20440;-63
2021/01/20 01:23:04;;;;;;;0.40;0.30;;;;;;;5.82;100.00;99923.91;5099379;28;20439;-63
2021/01/20 01:25:30;;;;;;;0.50;0.30;;;;;;;5.79;100.00;99921.00;5097871;28;21008;-63
2021/01/20 01:27:56;;;;;;;0.40;0.30;;;;;;;5.79;100.00;99912.94;5098548;28;20946;-63
2021/01/20 01:30:23;;;;;;;0.50;0.33;;;;;;;5.77;100.00;99915.13;5098520;28;20826;-63
2021/01/20 01:32:49;;;;;;;0.40;0.30;;;;;;;5.68;100.00;99917.63;5098893;28;20451;-63
2021/01/20 01:35:15;;;;;;;2.60;0.60;;;;;;;5.66;100.00;99913.63;5098384;28;20468;-63
2021/01/20 01:37:42;;;;;;;2.33;2.13;;;;;;;5.67;100.00;99924.09;5097743;28;20487;-63
2021/01/20 01:40:09;;;;;;;0.73;0.33;;;;;;;5.66;100.00;99919.78;5097607;28;20950;-63
2021/01/20 01:42:36;;;;;;;0.40;0.30;;;;;;;5.69;100.00;99919.22;5097244;28;20468;-63
2021/01/20 01:45:03;;;;;;;0.40;0.30;;;;;;;5.67;100.00;99916.03;5097735;28;20460;-63
2021/01/20 01:47:29;;;;;;;2.23;1.20;;;;;;;5.71;100.00;99914.38;5097297;28;20445;-63
2021/01/20 01:49:56;;;;;;;0.50;0.40;;;;;;;5.75;100.00;99920.75;5097363;28;20440;-63
2021/01/20 01:52:23;;;;;;;1.73;0.60;;;;;;;5.76;100.00;99917.00;5097824;28;20447;-63
2021/01/20 01:54:52;;;;;;;0.73;0.63;;;;;;;5.73;100.00;99922.94;5097042;28;20464;-63
2021/01/20 01:57:20;;;;;;;0.40;0.23;;;;;;;5.72;100.00;99917.88;5097242;28;20901;-63
2021/01/20 01:59:47;;;;;;;0.40;0.30;;;;;;;5.71;100.00;99918.94;5093359;28;20457;-63
2021/01/20 02:02:14;;;;;;;0.40;0.30;;;;;;;5.71;100.00;99914.38;5080431;28;20456;-63
2021/01/20 02:04:40;;;;;;;2.10;1.00;;;;;;;5.67;100.00;99907.97;5079790;28;20473;-63
2021/01/20 02:07:07;;;;;;;1.33;0.70;;;;;;;5.69;100.00;99916.53;5081778;28;20449;-63
2021/01/20 02:09:34;;;;;;;0.40;0.20;;;;;;;5.64;100.00;99923.84;5081508;28;20441;-63
2021/01/20 02:12:29;;;;;;;0.40;0.20;;;;;;;5.63;100.00;99915.00;5081621;28;20445;-63
2021/01/20 02:15:03;;;;;;;0.40;0.30;;;;;;;5.59;100.00;99918.53;5080933;28;20465;-63
2021/01/20 02:17:36;;;;;;;0.73;0.70;;;;;;;5.59;100.00;99924.72;5085442;28;20469;-64
2021/01/20 02:20:12;;;;;;;0.40;0.30;;;;;;;5.57;100.00;99924.97;5083901;28;20429;-63
2021/01/20 02:22:40;;;;;;;0.87;0.53;;;;;;;5.60;100.00;99922.81;5082558;28;20432;-64
2021/01/20 02:25:20;;;;;;;0.77;0.67;;;;;;;5.55;100.00;99915.63;5085207;28;20473;-62
2021/01/20 02:27:58;;;;;;;2.70;0.77;;;;;;;5.50;100.00;99921.84;5084865;28;20414;-63
2021/01/20 02:30:26;;;;;;;0.83;0.50;;;;;;;5.45;100.00;99921.09;5083470;28;20446;-62
2021/01/20 02:32:55;;;;;;;0.47;0.40;;;;;;;5.51;100.00;99926.13;5083076;28;20463;-63
2021/01/20 02:35:23;;;;;;;0.97;0.57;;;;;;;5.52;100.00;99932.28;5082822;28;20519;-63
2021/01/20 02:37:50;;;;;;;2.67;2.00;;;;;;;5.52;100.00;99933.09;5081582;28;20488;-63
2021/01/20 02:40:17;;;;;;;0.50;0.50;;;;;;;5.56;100.00;99933.31;5081471;28;20441;-63
2021/01/20 02:42:44;;;;;;;0.50;0.40;;;;;;;5.55;100.00;99929.84;5081495;28;20448;-62
2021/01/20 02:45:12;;;;;;;0.53;0.53;;;;;;;5.54;100.00;99940.88;5080909;28;20548;-63
2021/01/20 02:47:40;;;;;;;0.40;0.27;;;;;;;5.55;100.00;99932.53;5080469;28;20500;-62
2021/01/20 02:50:07;;;;;;;3.63;0.93;;;;;;;5.51;100.00;99936.88;5079999;28;20453;-63
2021/01/20 02:52:47;;;;;;;2.87;1.07;;;;;;;5.52;100.00;99943.84;5080722;28;20445;-63
2021/01/20 02:55:16;;;;;;;0.40;0.30;;;;;;;5.49;100.00;99938.22;5098439;22;20993;-69
2021/01/20 02:57:44;;;;;;;1.00;0.33;;;;;;;5.49;100.00;99943.59;5072963;28;20481;-68
2021/01/20 03:00:12;;;;;;;1.03;0.77;;;;;;;5.46;100.00;99939.59;5072993;28;20485;-67
2021/01/20 03:02:40;;;;;;;2.60;2.30;;;;;;;5.46;100.00;99936.13;5072609;28;21011;-69
2021/01/20 03:05:10;;;;;;;5.50;1.03;;;;;;;5.47;100.00;99940.41;5073155;28;20476;-68
2021/01/20 03:07:38;;;;;;;1.67;1.07;;;;;;;5.41;100.00;99930.81;5072676;28;20448;-69
2021/01/20 03:10:19;;;;;;;0.63;0.40;;;;;;;5.45;100.00;99946.06;5072644;28;20485;-69
2021/01/20 03:12:45;;;;;;;0.80;0.80;;;;;;;5.45;100.00;99937.22;5072983;28;20457;-69
2021/01/20 03:15:18;;;;;;;2.87;0.90;;;;;;;5.43;100.00;99939.34;5072861;28;20515;-69
2021/01/20 03:17:45;;;;;;;1.13;0.80;;;;;;;5.43;100.00;99934.00;5072457;28;20465;-67
2021/01/20 03:20:12;;;;;;;0.40;0.30;;;;;;;5.41;100.00;99928.13;5072497;28;20457;-68
2021/01/20 03:22:38;;;;;;;0.53;0.50;;;;;;;5.41;100.00;99928.91;5072839;28;20843;-68
2021/01/20 03:25:05;;;;;;;0.40;0.30;;;;;;;5.35;100.00;99927.34;5072424;28;20454;-69
2021/01/20 03:27:31;;;;;;;1.53;0.70;;;;;;;5.31;100.00;99926.28;5073592;28;20459;-67
2021/01/20 03:29:57;;;;;;;0.60;0.57;;;;;;;5.29;100.00;99929.28;5076673;28;20445;-68
2021/01/20 03:32:23;;;;;;;0.50;0.50;;;;;;;5.30;100.00;99930.88;5076607;28;20441;-68
2021/01/20 03:34:50;;;;;;;2.93;0.63;;;;;;;5.25;100.00;99914.81;5076483;28;20497;-68
2021/01/20 03:37:17;;;;;;;1.10;0.70;;;;;;;5.26;100.00;99918.28;5076481;28;20452;-68
2021/01/20 03:39:43;;;;;;;0.40;0.40;;;;;;;5.25;100.00;99909.44;5076427;28;20468;-68
2021/01/20 03:42:09;;;;;;;0.63;0.63;;;;;;;5.24;100.00;99907.03;5076079;28;20444;-68
2021/01/20 03:44:36;;;;;;;0.60;0.47;;;;;;;5.20;100.00;99914.84;5076213;28;20534;-68
2021/01/20 03:47:02;;;;;;;0.83;0.70;;;;;;;5.14;100.00;99905.25;5076305;28;20448;-68
2021/01/20 03:49:28;;;;;;;0.53;0.53;;;;;;;5.10;100.00;99900.72;5075901;28;20476;-67
2021/01/20 03:51:55;;;;;;;2.40;1.03;;;;;;;5.03;100.00;99898.34;5076225;28;20819;-68
2021/01/20 03:54:21;;;;;;;4.20;1.13;;;;;;;4.99;100.00;99897.31;5075872;28;20513;-68
2021/01/20 03:56:47;;;;;;;0.97;0.87;;;;;;;4.98;100.00;99903.78;5075916;28;20950;-69
2021/01/20 03:59:14;;;;;;;5.10;0.93;;;;;;;4.92;100.00;99897.66;5076016;28;20513;-69
2021/01/20 04:01:40;;;;;;;1.10;0.77;;;;;;;4.93;100.00;99898.44;5075678;28;20477;-69
2021/01/20 04:04:06;;;;;;;1.20;0.90;;;;;;;4.94;100.00;99889.31;5075964;28;20473;-68
2021/01/20 04:06:32;;;;;;;1.73;1.10;;;;;;;4.87;100.00;99889.66;5075929;28;20523;-69
2021/01/20 04:08:59;;;;;;;0.50;0.50;;;;;;;4.87;100.00;99888.81;5075811;28;20437;-69
2021/01/20 04:11:26;;;;;;;0.63;0.50;;;;;;;4.83;100.00;99882.44;5075550;28;20485;-68
2021/01/20 04:13:52;;;;;;;2.10;2.00;;;;;;;4.85;100.00;99877.56;5075694;28;20799;-68
2021/01/20 04:16:18;;;;;;;0.50;0.43;;;;;;;4.84;100.00;99884.03;5075841;28;20472;-68
2021/01/20 04:18:44;;;;;;;0.40;0.30;;;;;;;4.85;100.00;99870.31;5075588;28;20589;-68
2021/01/20 04:21:11;;;;;;;0.80;0.63;;;;;;;4.79;100.00;99866.88;5075323;28;20487;-67
2021/01/20 04:23:38;;;;;;;0.40;0.30;;;;;;;4.79;100.00;99866.09;5075524;28;20469;-68
2021/01/20 04:26:05;;;;;;;0.70;0.60;;;;;;;4.79;100.00;99864.22;5075312;28;20484;-67
2021/01/20 04:28:32;;;;;;;1.00;0.57;;;;;;;4.78;100.00;99867.97;5075523;28;20788;-68
2021/01/20 04:30:58;;;;;;;0.73;0.40;;;;;;;4.77;100.00;99863.66;5075196;28;20453;-68
2021/01/20 04:33:24;;;;;;;0.60;0.60;;;;;;;4.74;100.00;99866.94;5075452;28;20441;-68
2021/01/20 04:35:51;;;;;;;0.60;0.40;;;;;;;4.79;100.00;99858.84;5075266;28;20457;-67
2021/01/20 04:38:17;;;;;;;0.87;0.63;;;;;;;4.75;100.00;99855.13;5074714;28;20567;-68
2021/01/20 04:40:43;;;;;;;0.50;0.50;;;;;;;4.76;100.00;99866.66;5074675;28;20474;-68
2021/01/20 04:43:10;;;;;;;1.33;0.50;;;;;;;4.75;100.00;99847.06;5074909;28;20866;-67
2021/01/20 04:45:36;;;;;;;3.23;0.80;;;;;;;4.76;100.00;99854.03;5075128;28;20489;-69
2021/01/20 04:48:03;;;;;;;0.40;0.30;;;;;;;4.76;100.00;99855.91;5075149;28;20518;-69
2021/01/20 04:50:31;;;;;;;0.53;0.47;;;;;;;4.74;100.00;99850.03;5074849;28;20895;-69
2021/01/20 04:53:01;;;;;;;1.10;1.03;;;;;;;4.76;100.00;99848.66;5075060;28;20468;-70
2021/01/20 04:55:28;;;;;;;0.50;0.40;;;;;;;4.76;100.00;99845.19;5074658;28;20861;-70
2021/01/20 04:57:55;;;;;;;0.60;0.40;;;;;;;4.76;100.00;99854.03;5074896;28;20485;-69
2021/01/20 05:00:23;;;;;;;8.10;0.83;;;;;;;4.75;100.00;99854.31;5074612;28;20973;-69
2021/01/20 05:02:52;;;;;;;0.60;0.50;;;;;;;4.76;100.00;99851.34;5074466;28;20939;-69
2021/01/20 05:05:18;;;;;;;0.40;0.30;;;;;;;4.79;100.00;99845.44;5074493;28;20468;-70
2021/01/20 05:07:44;;;;;;;0.50;0.40;;;;;;;4.75;100.00;99852.44;5074572;28;20438;-69
2021/01/20 05:10:11;;;;;;;0.60;0.60;;;;;;;4.78;100.00;99849.19;5074667;28;20442;-69
2021/01/20 05:12:39;;;;;;;0.40;0.30;;;;;;;4.81;100.00;99851.31;5074682;28;20444;-69
2021/01/20 05:15:08;;;;;;;1.03;0.93;;;;;;;4.83;100.00;99843.00;5074609;28;20461;-69
2021/01/20 05:17:35;;;;;;;0.70;0.63;;;;;;;4.78;100.00;99833.09;5074500;28;20481;-69
2021/01/20 05:20:03;;;;;;;0.70;0.43;;;;;;;4.77;100.00;99831.47;5074200;28;20449;-69
2021/01/20 05:22:30;;;;;;;0.40;0.30;;;;;;;4.77;100.00;99839.53;5074543;28;20441;-70
2021/01/20 05:25:01;;;;;;;0.40;0.30;;;;;;;4.78;100.00;99834.97;5074322;28;20461;-69
2021/01/20 05:27:28;;;;;;;0.40;0.40;;;;;;;4.70;100.00;99836.38;5074366;28;20453;-70
2021/01/20 05:30:01;;;;;;;0.40;0.27;;;;;;;4.71;100.00;99837.97;5074304;28;20864;-69
2021/01/20 05:32:28;;;;;;;1.33;0.53;;;;;;;4.69;99.72;99826.75;5074020;28;20444;-69
2021/01/20 05:35:02;;;;;;;0.40;0.30;;;;;;;4.71;99.83;99831.81;5074231;28;20461;-70
2021/01/20 05:37:28;;;;;;;0.40;0.30;;;;;;;4.73;99.54;99835.00;5073811;28;20421;-69
2021/01/20 05:40:11;;;;;;;3.20;1.00;;;;;;;4.71;99.41;99835.28;5074110;28;20491;-69
2021/01/20 05:42:49;;;;;;;0.50;0.40;;;;;;;4.67;99.17;99833.47;5074107;28;20461;-69
2021/01/20 05:45:16;;;;;;;0.60;0.57;;;;;;;4.62;98.97;99828.94;5073988;28;20471;-69
2021/01/20 05:48:03;;;;;;;0.40;0.30;;;;;;;4.60;98.46;99831.06;5073985;28;20452;-68
2021/01/20 05:50:30;;;;;;;0.40;0.30;;;;;;;4.54;98.98;99838.38;5074045;28;20515;-68
2021/01/20 05:53:07;;;;;;;0.40;0.30;;;;;;;4.52;98.87;99832.50;5073524;28;20878;-69
2021/01/20 05:55:35;;;;;;;0.50;0.50;;;;;;;4.53;98.42;99834.09;5073461;28;20469;-68
2021/01/20 05:58:02;;;;;;;0.40;0.30;;;;;;;4.52;98.15;99835.19;5073693;28;20503;-68
2021/01/20 06:00:29;;;;;;;0.90;0.63;;;;;;;4.50;97.97;99831.97;5073799;28;20442;-69
2021/01/20 06:02:57;;;;;;;0.70;0.53;;;;;;;4.49;98.01;99837.59;5073686;28;20442;-70
2021/01/20 06:05:23;;;;;;;1.37;0.63;;;;;;;4.45;97.65;99842.72;5073303;28;20493;-69
2021/01/20 06:07:52;;;;;;;3.40;1.03;;;;;;;4.47;97.92;99842.44;5073648;28;20445;-70
2021/01/20 06:10:19;;;;;;;0.40;0.30;;;;;;;4.45;98.65;99834.69;5073769;28;20816;-71
2021/01/20 06:12:45;;;;;;;0.60;0.43;;;;;;;4.43;98.16;99836.84;5073312;28;20457;-71
2021/01/20 06:15:13;;;;;;;0.40;0.27;;;;;;;4.49;98.22;99840.28;5073481;28;20461;-70
2021/01/20 06:17:41;;;;;;;0.57;0.57;;;;;;;4.54;97.02;99848.28;5073503;28;20481;-68
2021/01/20 06:20:08;;;;;;;0.50;0.50;;;;;;;4.57;96.63;99845.06;5073542;28;20445;-67
2021/01/20 06:22:40;;;;;;;0.40;0.30;;;;;;;4.55;96.24;99845.31;5073120;28;20950;-68
2021/01/20 06:25:13;;;;;;;1.90;0.53;;;;;;;4.58;96.02;99838.63;5073356;28;20497;-68
2021/01/20 06:27:43;;;;;;;0.40;0.30;;;;;;;4.57;96.81;99837.03;5073105;28;20422;-69
2021/01/20 06:30:14;;;;;;;0.40;0.20;;;;;;;4.55;96.47;99831.13;5073412;28;20455;-68
2021/01/20 06:32:43;;;;;;;0.50;0.50;;;;;;;4.54;96.19;99845.63;5073358;28;20437;-68
2021/01/20 06:35:10;;;;;;;0.40;0.33;;;;;;;4.50;95.96;99836.53;5073262;28;20583;-69
2021/01/20 06:37:41;;;;;;;0.50;0.30;;;;;;;4.51;95.78;99833.56;5072851;28;20446;-68
2021/01/20 06:40:39;;;;;;;0.70;0.67;;;;;;;4.52;95.42;99842.44;5073299;28;20422;-68
2021/01/20 06:43:47;;;;;;;0.40;0.23;;;;;;;4.47;95.52;99843.25;5066967;28;20844;-68
2021/01/20 06:46:28;;;;;;;0.60;0.60;;;;;;;4.46;96.24;99841.63;5073220;28;20519;-67
2021/01/20 06:49:05;;;;;;;0.93;0.93;;;;;;;4.46;95.92;99841.63;5073158;28;20420;-68
2021/01/20 06:51:33;;;;;;;0.50;0.40;;;;;;;4.42;95.61;99834.44;5073065;28;20445;-68
2021/01/20 06:54:11;;;;;;;0.50;0.30;;;;;;;4.46;95.74;99846.19;5072762;28;20804;-68
2021/01/20 06:56:39;;;;;;;0.73;0.50;;;;;;;4.50;96.01;99839.19;5072256;28;20453;-69
2021/01/20 06:59:20;;;;;;;0.50;0.40;;;;;;;4.53;95.93;99852.06;5072070;28;20509;-69
2021/01/20 07:02:12;;;;;;;0.40;0.30;;;;;;;4.58;96.36;99835.94;5072225;28;20425;-69
2021/01/20 07:04:55;;;;;;;0.40;0.30;;;;;;;4.60;95.84;99841.00;5075590;28;20544;-69
2021/01/20 07:08:02;;;;;;;0.40;0.20;;;;;;;4.62;95.50;99836.97;5075769;28;20542;-70
2021/01/20 07:11:05;;;;;;;0.40;0.20;;;;;;;4.65;94.41;99839.09;5073503;28;20460;-70
2021/01/20 07:13:34;;;;;;;0.40;0.30;;;;;;;4.69;94.27;99834.78;5075337;28;20894;-71
2021/01/20 07:16:01;;;;;;;0.50;0.50;;;;;;;4.71;94.48;99837.97;5075521;28;20556;-69
2021/01/20 07:18:28;;;;;;;0.40;0.37;;;;;;;4.69;95.24;99834.78;5075466;28;20484;-70
2021/01/20 07:20:55;;;;;;;0.40;0.30;;;;;;;4.71;95.40;99827.25;5075459;28;20493;-70
2021/01/20 07:23:23;;;;;;;1.03;0.53;;;;;;;4.73;95.65;99833.13;5075527;28;20477;-69
2021/01/20 07:25:52;;;;;;;0.40;0.30;;;;;;;4.75;93.60;99836.34;5075292;28;20457;-69
2021/01/20 07:28:22;;;;;;;0.50;0.40;;;;;;;4.77;93.44;99836.03;5075423;28;20584;-69
2021/01/20 07:30:50;;;;;;;0.60;0.60;;;;;;;4.77;94.09;99836.84;5075055;28;20906;-69
2021/01/20 07:33:18;;;;;;;0.50;0.40;;;;;;;4.81;93.97;99845.94;5075255;28;20444;-69
2021/01/20 07:35:45;;;;;;;0.97;0.97;;;;;;;4.76;94.24;99840.63;5075204;28;20461;-69
2021/01/20 07:38:11;;;;;;;0.50;0.40;;;;;;;4.74;93.46;99842.00;5075168;28;20481;-69
2021/01/20 07:40:40;;;;;;;0.40;0.30;;;;;;;4.77;93.41;99842.22;5075153;28;20441;-69
2021/01/20 07:43:07;;;;;;;0.50;0.40;;;;;;;4.79;93.62;99841.94;5074823;28;21024;-69
2021/01/20 07:45:38;;;;;;;0.63;0.63;;;;;;;4.85;93.16;99837.34;5075036;28;20453;-69
2021/01/20 07:48:08;;;;;;;0.60;0.50;;;;;;;4.88;92.75;99842.94;5074757;28;20815;-69
2021/01/20 07:50:40;;;;;;;0.50;0.40;;;;;;;4.92;93.16;99843.97;5074704;28;20457;-70
2021/01/20 07:53:09;;;;;;;0.40;0.30;;;;;;;4.93;92.71;99842.91;5074992;28;20487;-69
2021/01/20 07:55:36;;;;;;;1.43;0.60;;;;;;;4.99;92.80;99849.00;5053023;28;645667;-68
2021/01/20 07:58:02;;;;;;;0.40;0.30;;;;;;;5.01;92.58;99844.97;5075824;28;20481;-69
2021/01/20 08:00:29;;;;;;;0.57;0.50;;;;;;;5.00;91.67;99848.75;5075948;28;20452;-68
2021/01/20 08:02:57;;;;;;;0.40;0.30;;;;;;;5.01;91.39;99852.22;5075567;28;20444;-68
2021/01/20 08:05:32;;;;;;;1.07;0.93;;;;;;;5.05;90.86;99854.06;5075896;28;20469;-68
2021/01/20 08:08:06;;;;;;;0.57;0.40;;;;;;;5.18;91.70;99851.78;5075590;28;20430;-68
2021/01/20 08:10:32;;;;;;;0.40;0.30;;;;;;;5.22;91.12;99847.44;5075582;28;20429;-68
2021/01/20 08:13:00;;;;;;;3.03;1.33;;;;;;;5.22;91.27;99845.59;5075362;28;20426;-68
2021/01/20 08:15:28;;;;;;;0.60;0.60;;;;;;;5.30;91.16;99846.84;5074448;28;20846;-69
2021/01/20 08:17:57;;;;;;;0.40;0.30;;;;;;;5.36;90.38;99836.84;5075687;28;20492;-68
2021/01/20 08:20:24;;;;;;;3.47;1.10;;;;;;;5.37;90.31;99835.78;5075718;28;20434;-67
2021/01/20 08:22:53;;;;;;;0.50;0.40;;;;;;;5.38;90.77;99838.16;5075394;28;20498;-68
2021/01/20 08:25:21;;;;;;;3.23;0.70;;;;;;;5.40;89.29;99832.50;5075673;28;20461;-69
2021/01/20 08:27:48;;;;;;;0.40;0.30;;;;;;;5.44;88.90;99828.16;5075556;28;20448;-69
2021/01/20 08:30:29;;;;;;;0.40;0.30;;;;;;;5.51;89.37;99839.38;5075216;28;20484;-68
2021/01/20 08:32:56;;;;;;;4.93;0.97;;;;;;;5.53;88.83;99837.19;5075467;28;20421;-68
2021/01/20 08:35:30;;;;;;;0.50;0.40;;;;;;;5.50;87.87;99835.09;5075047;28;20996;-67
2021/01/20 08:37:58;;;;;;;0.40;0.30;;;;;;;5.56;88.14;99832.06;5075106;28;20836;-67
2021/01/20 08:40:25;;;;;;;1.13;1.07;;;;;;;5.61;88.26;99833.09;5075298;28;20445;-68
2021/01/20 08:42:51;;;;;;;0.40;0.40;;;;;;;5.66;87.44;99836.50;5075181;28;20468;-68
2021/01/20 08:45:31;;;;;;;0.40;0.40;;;;;;;5.69;87.45;99835.94;5075373;28;20891;-68
2021/01/20 08:47:59;;;;;;;0.40;0.30;;;;;;;5.71;86.30;99833.78;5075484;28;20465;-67
2021/01/20 08:50:42;;;;;;;0.40;0.30;;;;;;;5.72;86.70;99827.31;5075213;28;20445;-67
2021/01/20 08:53:10;;;;;;;0.60;0.60;;;;;;;5.78;86.28;99826.16;5075194;28;20453;-67
2021/01/20 08:55:38;;;;;;;0.40;0.40;;;;;;;5.81;86.37;99816.72;5076148;28;20481;-67
2021/01/20 08:58:27;;;;;;;0.60;0.60;;;;;;;5.82;85.37;99824.50;5074603;28;20517;-67
2021/01/20 09:00:58;;;;;;;1.20;0.57;;;;;;;5.89;85.43;99818.78;5074733;28;20429;-68
2021/01/20 09:03:26;;;;;;;0.40;0.30;;;;;;;5.90;84.76;99824.94;5073355;28;20449;-68
2021/01/20 09:05:53;;;;;;;0.50;0.40;;;;;;;5.93;84.82;99814.47;5074365;28;20990;-69
2021/01/20 09:08:21;;;;;;;1.23;0.87;;;;;;;6.00;84.54;99812.19;5075166;28;20460;-67
2021/01/20 09:10:48;;;;;;;0.40;0.30;;;;;;;6.06;84.84;99812.91;5074917;28;20449;-66
2021/01/20 09:13:17;;;;;;;0.40;0.30;;;;;;;6.02;84.29;99801.16;5074912;28;20441;-68
2021/01/20 09:15:45;;;;;;;0.87;0.47;;;;;;;6.08;84.55;99805.38;5074665;28;20467;-68
2021/01/20 09:18:11;;;;;;;0.90;0.87;;;;;;;6.10;84.25;99800.50;5074587;28;20520;-68
2021/01/20 09:20:37;;;;;;;0.40;0.30;;;;;;;6.13;83.97;99799.94;5074521;28;20438;-69
2021/01/20 09:23:04;;;;;;;0.50;0.40;;;;;;;6.12;83.69;99797.53;5074327;28;20935;-68
2021/01/20 09:25:31;;;;;;;3.43;1.00;;;;;;;6.19;84.13;99804.13;5073719;28;20854;-69
2021/01/20 09:27:58;;;;;;;0.40;0.30;;;;;;;6.18;83.78;99791.78;5074572;28;20483;-68
2021/01/20 09:30:24;;;;;;;0.50;0.47;;;;;;;6.20;84.28;99797.69;5074468;28;20461;-67
2021/01/20 09:32:50;;;;;;;0.40;0.30;;;;;;;6.25;83.31;99797.59;5074298;28;20442;-67
2021/01/20 09:35:18;;;;;;;0.97;0.87;;;;;;;6.26;83.26;99801.88;5073836;28;20990;-68
2021/01/20 09:37:45;;;;;;;0.90;0.80;;;;;;;6.32;84.35;99799.91;5073665;28;20460;-68
2021/01/20 09:40:13;;;;;;;1.33;0.80;;;;;;;6.45;83.89;99809.13;5073469;28;20437;-67
2021/01/20 09:42:41;;;;;;;0.40;0.30;;;;;;;6.47;82.39;99804.28;5074238;28;20477;-67
2021/01/20 09:45:09;;;;;;;1.00;0.80;;;;;;;6.52;82.71;99802.31;5073351;28;20952;-67
2021/01/20 09:47:36;;;;;;;1.70;0.70;;;;;;;6.63;81.76;99796.75;5073522;28;20453;-68
2021/01/20 09:50:03;;;;;;;0.50;0.30;;;;;;;6.67;82.57;99793.19;5073557;28;20461;-66
2021/01/20 09:52:29;;;;;;;0.80;0.73;;;;;;;6.73;82.74;99794.72;5074332;28;20911;-70
2021/01/20 09:54:56;;;;;;;1.83;0.53;;;;;;;6.81;81.19;99785.94;5073320;28;20484;-68
2021/01/20 09:57:22;;;;;;;0.63;0.63;;;;;;;6.90;81.54;99786.06;5073832;28;20449;-69
2021/01/20 09:59:50;;;;;;;0.40;0.30;;;;;;;6.98;80.18;99788.06;5073523;28;20989;-68
2021/01/20 10:02:16;;;;;;;0.40;0.30;;;;;;;7.06;80.25;99791.97;5073866;28;20498;-70
2021/01/20 10:04:43;;;;;;;1.53;0.60;;;;;;;7.05;79.17;99785.00;5073890;28;20885;-68
2021/01/20 10:07:09;;;;;;;0.77;0.57;;;;;;;7.12;79.16;99787.28;5073757;28;20441;-69
2021/01/20 10:09:37;;;;;;;0.40;0.40;;;;;;;7.16;79.45;99783.69;5073658;28;20433;-69
2021/01/20 10:12:04;;;;;;;0.40;0.30;;;;;;;7.25;79.56;99771.13;5073594;28;20472;-68
2021/01/20 10:14:30;;;;;;;0.90;0.70;;;;;;;7.36;79.80;99774.44;5073380;28;20974;-68
2021/01/20 10:16:57;;;;;;;0.40;0.30;;;;;;;7.47;78.77;99769.66;5073803;28;20445;-66
2021/01/20 10:19:24;;;;;;;0.40;0.33;;;;;;;7.53;77.88;99766.56;5073672;28;20487;-69
2021/01/20 10:21:50;;;;;;;0.50;0.40;;;;;;;7.57;76.71;99770.25;5073519;28;20489;-66
2021/01/20 10:24:16;;;;;;;0.90;0.87;;;;;;;7.58;77.08;99765.66;5073567;28;20501;-67
2021/01/20 10:26:42;;;;;;;0.70;0.40;;;;;;;7.60;76.42;99766.16;5073612;28;20493;-68
2021/01/20 10:29:09;;;;;;;0.40;0.30;;;;;;;7.60;77.48;99758.06;5073401;28;20437;-68
2021/01/20 10:31:37;;;;;;;0.57;0.57;;;;;;;7.50;76.97;99753.69;5073513;28;20446;-68
2021/01/20 10:34:05;;;;;;;0.40;0.30;;;;;;;7.56;76.24;99748.97;5073443;28;20470;-68
2021/01/20 10:36:32;;;;;;;0.50;0.40;;;;;;;7.61;75.88;99753.47;5072942;28;20441;-68
2021/01/20 10:38:59;;;;;;;0.40;0.30;;;;;;;7.69;76.14;99753.56;5073273;28;20485;-66
2021/01/20 10:41:26;;;;;;;0.40;0.27;;;;;;;7.75;75.72;99755.06;5073469;28;20445;-68
2021/01/20 10:43:54;;;;;;;0.40;0.30;;;;;;;7.84;75.85;99757.84;5073418;28;20491;-67
2021/01/20 10:46:25;;;;;;;1.33;0.67;;;;;;;7.90;75.38;99758.50;5073303;28;20488;-68
2021/01/20 10:48:51;;;;;;;0.60;0.50;;;;;;;7.96;75.74;99760.00;5073448;28;20478;-66
2021/01/20 10:51:18;;;;;;;0.40;0.30;;;;;;;8.00;75.04;99758.28;5073093;28;20452;-66
2021/01/20 10:53:44;;;;;;;0.50;0.40;;;;;;;8.07;74.60;99766.75;5073100;28;20433;-67
2021/01/20 10:56:11;;;;;;;4.40;2.27;;;;;;;8.13;74.83;99764.75;5073833;28;20461;-68
2021/01/20 10:58:37;;;;;;;0.40;0.30;;;;;;;8.15;72.75;99762.56;5073189;28;20477;-69
2021/01/20 11:01:04;;;;;;;1.67;0.87;;;;;;;8.17;72.68;99765.72;5072781;28;20488;-69
2021/01/20 11:03:30;;;;;;;1.37;0.67;;;;;;;8.26;72.87;99759.28;5073215;28;20444;-70
2021/01/20 11:05:57;;;;;;;4.30;0.57;;;;;;;8.32;73.18;99768.88;5073021;28;20823;-69
2021/01/20 11:08:24;;;;;;;0.40;0.30;;;;;;;8.29;74.31;99761.38;5073295;28;20437;-69
2021/01/20 11:10:50;;;;;;;0.60;0.60;;;;;;;8.34;71.69;99757.78;5073005;28;20477;-70
2021/01/20 11:13:17;;;;;;;1.23;1.13;;;;;;;8.39;70.83;99754.97;5072977;28;20490;-69
2021/01/20 11:15:45;;;;;;;0.60;0.60;;;;;;;8.45;71.07;99761.84;5072998;28;20547;-69
2021/01/20 11:18:12;;;;;;;0.40;0.30;;;;;;;8.52;69.87;99761.41;5072723;28;20485;-69
2021/01/20 11:20:38;;;;;;;0.50;0.50;;;;;;;8.51;68.65;99749.03;5072706;28;20878;-69
2021/01/20 11:23:04;;;;;;;0.40;0.30;;;;;;;8.53;69.99;99755.69;5072632;28;20919;-69
2021/01/20 11:25:32;;;;;;;0.50;0.40;;;;;;;8.58;70.71;99757.47;5072756;28;20474;-67
2021/01/20 11:27:59;;;;;;;0.40;0.30;;;;;;;8.60;68.68;99757.97;5072623;28;20839;-66
2021/01/20 11:30:26;;;;;;;0.40;0.30;;;;;;;8.64;68.58;99755.47;5072899;28;20441;-66
2021/01/20 11:32:52;;;;;;;0.40;0.40;;;;;;;8.64;68.17;99753.56;5072818;28;20454;-68
2021/01/20 11:35:18;;;;;;;0.50;0.40;;;;;;;8.61;69.58;99756.06;5072905;28;20468;-67
2021/01/20 11:37:44;;;;;;;0.50;0.50;;;;;;;8.58;68.96;99749.38;5072787;28;20440;-68
2021/01/20 11:40:11;;;;;;;0.40;0.30;;;;;;;8.61;69.14;99742.59;5072615;28;20483;-67
2021/01/20 11:42:38;;;;;;;0.40;0.40;;;;;;;8.60;68.68;99744.50;5072643;28;20448;-68